• Join FlightAware (Why Join?)
  • Login
  • US Flag 
01:27AM EDT


 

Airport Tracker/Info


-or-


 

Live Flight TrackerFlight Track Log ✈ N631TS ✈ 10-Jul-2013 ✈ KSTC - KISN

Flight Track Log - Related Links

Times and Time Zones

All times are in EDT time to prevent confusion due to time zone crossing. See the N631TS flight status page for this flight to view local times or setup timezone preferences in your user account.

Time Position Orientation Groundspeed Altitude Reporting Facility
EDT Latitude Longitude Course Direction KTS MPH feet Rate Location/Type
08:18AM 45.5792 -94.1275 297° West 154 177 3,100  Level Minneapolis Center
08:19AM 45.6025 -94.2050 293° West 209 241 5,000 1,920 Climbing Minneapolis Center
08:20AM 45.6256 -94.2803 294° West 208 239 7,100 2,160 Climbing Minneapolis Center
08:21AM 45.7558 -94.7033 298° West  Level FlightAware Approximate
08:21AM 45.6564 -94.3694 296° West 209 241 9,500  Level Minneapolis Center
08:22AM 45.7828 -94.8127 297° West  Level FlightAware Approximate
08:22AM 45.6794 -94.4428 294° West 206 237 11,400  Level Minneapolis Center
08:23AM 45.8201 -94.9188 297° West  Level FlightAware Approximate
08:23AM 45.7033 -94.5161 295° West 204 235 13,100  Level Minneapolis Center
08:24AM 45.7278 -94.5908 295° West 207 238 14,600 1,440 Climbing Minneapolis Center
08:25AM 45.7525 -94.6669 295° West 210 242 16,100 1,380 Climbing Minneapolis Center
08:26AM 45.7767 -94.7425 295° West 210 242 17,500 1,200 Climbing Minneapolis Center
08:27AM 45.8019 -94.8186 295° West 212 244 18,600 1,200 Climbing Minneapolis Center
08:28AM 45.8314 -94.9131 294° West 216 249 20,100 1,260 Climbing Minneapolis Center
08:29AM 45.8567 -94.9914 295° West 217 250 21,300 1,020 Climbing Minneapolis Center
08:30AM 45.8831 -95.0764 294° West 226 260 22,300 1,020 Climbing Minneapolis Center
08:31AM 45.9100 -95.1622 294° West 235 270 23,400 900 Climbing Minneapolis Center
08:32AM 45.9372 -95.2481 295° West 237 273 24,200 840 Climbing Minneapolis Center
08:33AM 45.9664 -95.3375 295° West 247 284 25,200 900 Climbing Minneapolis Center
08:34AM 45.9942 -95.4283 294° West 249 287 26,100 960 Climbing Minneapolis Center
08:36AM 46.0289 -95.5375 295° West 251 289 27,200 900 Climbing Minneapolis Center
08:37AM 46.0572 -95.6275 294° West 249 287 28,000 660 Climbing Minneapolis Center
08:38AM 46.0850 -95.7197 294° West 251 289 28,600 600 Climbing Minneapolis Center
08:39AM 46.1139 -95.8119 294° West 254 292 29,300 600 Climbing Minneapolis Center
08:40AM 46.1442 -95.9044 295° West 255 293 29,900 600 Climbing Minneapolis Center
08:41AM 46.1711 -95.9978 293° West 253 291 30,600 540 Climbing Minneapolis Center
08:42AM 46.2039 -96.1033 294° West 257 296 31,100 480 Climbing Minneapolis Center
08:43AM 46.2328 -96.1983 294° West 258 297 31,600 480 Climbing Minneapolis Center
08:44AM 46.2628 -96.2925 295° West 259 298 32,100 420 Climbing Minneapolis Center
08:45AM 46.2911 -96.3892 293° West 262 302 32,500 360 Climbing Minneapolis Center
08:46AM 46.3200 -96.4853 294° West 263 303 32,900 420 Climbing Minneapolis Center
08:47AM 46.3544 -96.5994 294° West 261 300 33,400 420 Climbing Minneapolis Center
08:48AM 46.3833 -96.6956 294° West 261 300 33,800 240 Climbing Minneapolis Center
08:49AM 46.4122 -96.7931 293° West 265 305 34,000 60 Climbing Minneapolis Center
08:50AM 46.4417 -96.8928 293° West 270 311 34,000  Level Minneapolis Center
08:51AM 46.4725 -96.9953 294° West 277 319 34,000  Level Minneapolis Center
08:52AM 46.5103 -97.1211 294° West 285 328 34,000  Level Minneapolis Center
08:53AM 46.5475 -97.2506 293° West 290 334 34,000  Level Minneapolis Center
08:54AM 46.5858 -97.3797 293° West 292 336 34,000  Level Minneapolis Center
08:56AM 46.6167 -97.4886 292° West 293 337 34,000  Level Minneapolis Center
08:57AM 46.6483 -97.5972 293° West 294 338 34,000  Level Minneapolis Center
08:58AM 46.6806 -97.7050 294° West 293 337 34,000  Level Minneapolis Center
08:59AM 46.7119 -97.8186 292° West 300 345 34,000  Level Minneapolis Center
09:00AM 46.7439 -97.9292 293° West 300 345 34,000  Level Minneapolis Center
09:01AM 46.7814 -98.0622 292° West 298 343 34,000  Level Minneapolis Center
09:02AM 46.8142 -98.1772 293° West 301 346 34,000  Level Minneapolis Center
09:03AM 46.8453 -98.2872 292° West 298 343 34,000  Level Minneapolis Center
09:04AM 46.8764 -98.3992 292° West 297 342 34,000  Level Minneapolis Center
09:05AM 46.9075 -98.5108 292° West 297 342 34,000  Level Minneapolis Center
09:06AM 46.9383 -98.6228 292° West 297 342 34,000  Level Minneapolis Center
09:07AM 46.9694 -98.7347 292° West 297 342 34,000  Level Minneapolis Center
09:08AM 47.0003 -98.8472 292° West 297 342 34,000  Level Minneapolis Center
09:09AM 47.0378 -98.9828 292° West 298 343 34,000  Level Minneapolis Center
09:10AM 47.0683 -99.0967 292° West 299 344 34,000  Level Minneapolis Center
09:11AM 47.0978 -99.2092 291° West 298 343 34,000  Level Minneapolis Center
09:12AM 47.1289 -99.3225 292° West 299 344 34,000  Level Minneapolis Center
09:13AM 47.1594 -99.4358 292° West 298 343 34,000  Level Minneapolis Center
09:14AM 47.1903 -99.5494 292° West 299 344 34,000  Level Minneapolis Center
09:15AM 47.2197 -99.6628 291° West 299 344 34,000  Level Minneapolis Center
09:16AM 47.2542 -99.8000 290° West 299 344 34,000  Level Minneapolis Center
09:17AM 47.2856 -99.9144 292° West 299 344 34,000  Level Minneapolis Center
09:18AM 47.3150 -100.0294 291° West 300 345 34,000  Level Minneapolis Center
09:19AM 47.3444 -100.1450 291° West 301 346 34,000  Level Minneapolis Center
09:20AM 47.3750 -100.2586 292° West 300 345 34,000  Level Minneapolis Center
09:21AM 47.4050 -100.3725 291° West 299 344 34,000  Level Minneapolis Center
09:22AM 47.4331 -100.4881 290° West 300 345 34,000  Level Minneapolis Center
09:23AM 47.4717 -100.6283 292° West 305 351 34,000  Level Minneapolis Center
09:24AM 47.5014 -100.7436 291° West 304 350 34,000  Level Minneapolis Center
09:25AM 47.5303 -100.8572 291° West 299 344 34,000  Level Minneapolis Center
09:26AM 47.5564 -100.9711 289° West 295 339 34,000 -180 Level Minneapolis Center
09:28AM 47.5933 -101.1228 290° West 295 339 33,700 -420 Descending Minneapolis Center
09:29AM 47.6225 -101.2417 290° West 304 350 33,100 -480 Descending Minneapolis Center
09:30AM 47.6511 -101.3608 290° West 308 354 32,800 -420 Descending Minneapolis Center
09:31AM 47.6764 -101.4808 287° West 308 354 32,300 -360 Descending Minneapolis Center
09:32AM 47.7089 -101.6025 292° West 314 361 32,100 -180 Descending Minneapolis Center
09:33AM 47.7361 -101.7214 289° West 310 357 32,000 -120 Descending Minneapolis Center
09:34AM 47.7661 -101.8378 291° West 305 351 31,900 -660 Descending Minneapolis Center
09:35AM 47.7969 -101.9822 288° West 308 354 30,700 -1,320 Descending Minneapolis Center
09:36AM 47.8281 -102.1092 290° West 322 371 29,200 -1,680 Descending Minneapolis Center
09:37AM 47.8558 -102.2294 289° West 315 362 27,300 -1,860 Descending Minneapolis Center
09:38AM 47.8844 -102.3506 289° West 312 359 25,400 -1,800 Descending Minneapolis Center
09:39AM 47.9117 -102.4706 289° West 310 357 23,700 -1,800 Descending Minneapolis Center
09:40AM 47.9392 -102.5883 289° West 305 351 21,800 -2,040 Descending Minneapolis Center
09:41AM 47.9706 -102.7297 288° West 303 349 19,600 -2,280 Descending Minneapolis Center
09:42AM 47.9969 -102.8386 290° West 289 333 17,200 -2,400 Descending Minneapolis Center
09:43AM 48.0211 -102.9489 288° West 283 326 14,700 -2,520 Descending Minneapolis Center
09:44AM 48.0458 -103.0606 288° West 284 327 12,000 -2,820 Descending Minneapolis Center
09:45AM 48.0714 -103.1661 290° West 279 321 9,300 -2,580 Descending Salt Lake Center
09:46AM 48.0939 -103.2675 288° West 271 312 7,100 -2,040 Descending Salt Lake Center
09:47AM 48.1156 -103.3614 289° West 258 297 5,200 -1,860 Descending Salt Lake Center